Date,TemperatureHighF,TemperatureAvgF,TemperatureLowF,DewpointHighF,DewpointAvgF,DewpointLowF,HumidityHigh,HumidityAvg,HumidityLow,PressureMaxIn,PressureMinIn,WindSpeedMaxMPH,WindSpeedAvgMPH,GustSpeedMaxMPH,PrecipitationSumIn
2013-5-1,75,68,61,61,57,53,86,70,53,30.06,29.96,10,4,21,0.00
2013-5-2,71,65,60,59,56,52,82,74,65,30.09,30.00,10,4,18,0.00
2013-5-3,71,62,42,57,53,40,95,76,54,30.00,29.77,16,8,30,0.26
2013-5-4,53,45,39,45,41,38,96,87,67,29.95,29.83,7,3,12,1.54
2013-5-5,55,49,42,49,44,41,95,85,62,29.90,29.78,10,4,15,0.36
2013-5-6,62,53,48,53,50,46,98,89,61,29.88,29.75,7,4,15,0.43
2013-5-7,67,57,44,56,50,43,98,80,55,29.97,29.87,5,1,10,0.02
2013-5-8,76,64,52,58,54,51,96,73,43,30.03,29.94,8,2,15,0.01
2013-5-9,79,68,55,60,57,53,94,70,46,30.06,29.94,10,4,20,0.00
2013-5-10,72,65,61,63,58,-100,95,83,67,29.97,29.83,13,6,28,0.15
2013-5-11,69,62,54,63,56,-100,97,82,58,29.99,29.86,10,4,18,0.06
2013-5-12,62,56,48,52,36,28,90,50,27,30.14,29.99,12,6,18,0.00
2013-5-13,69,56,40,48,38,31,91,56,28,30.24,30.11,9,3,16,0.00
2013-5-14,82,67,50,56,51,45,84,60,40,30.15,29.99,16,6,25,0.00
2013-5-15,81,71,62,56,53,47,75,54,33,30.08,29.93,14,5,22,0.00
2013-5-16,80,67,63,62,37,-100,82,62,41,29.98,29.89,9,3,17,0.00
2013-5-17,67,65,63,66,58,-100,96,91,71,29.98,29.89,9,3,18,0.05
2013-5-18,79,71,65,70,67,64,99,88,69,29.97,29.91,8,4,15,0.01
2013-5-19,83,75,69,71,69,65,97,82,59,29.96,29.89,13,5,19,0.00
2013-5-20,81,72,64,70,67,62,95,84,65,29.98,29.87,8,4,14,0.00
2013-5-21,82,74,67,71,67,61,94,80,64,29.94,29.76,17,4,28,0.00
2013-5-22,76,69,62,66,63,60,96,81,67,29.89,29.77,14,5,30,0.00
2013-5-23,77,69,62,63,58,54,94,71,47,30.03,29.85,12,5,25,0.00
2013-5-24,70,62,54,55,49,43,89,64,39,30.24,30.02,12,5,19,0.00
2013-5-25,78,64,51,52,45,34,81,55,22,30.28,30.13,7,2,11,0.00
2013-5-26,82,69,53,58,52,48,89,59,31,30.19,30.07,6,2,13,0.00
2013-5-27,82,72,59,62,59,55,88,66,43,30.11,29.98,15,4,27,0.00
2013-5-28,83,75,65,63,60,56,80,61,42,30.05,29.96,13,5,28,0.00
2013-5-29,84,76,67,66,63,61,81,67,48,30.07,29.96,12,5,21,0.00
2013-5-30,81,76,70,69,66,63,80,71,62,30.06,29.93,13,6,25,0.01
2013-5-31,81,76,71,70,67,65,87,75,66,30.01,29.90,11,6,21,0.01